NVVJ weather

Forari Airport
Forari, Shefa, Vanuatu

Public forecast

Using degrees Celsius for public forecast. Weather courtesy of forecast.io.

METAR (pilot weather report)

Closest report is Bauerfield International Airport, 11.8 nm (21.9 km) W. Retrieved 2019/09/21 12:00 UTC (37 minutes ago):

NVVV 211200Z 06001KT 9999 FEW025 17/16 Q1019

TAF (pilot weather forecast)

Closest forecast is Bauerfield International Airport, 11.8 nm (21.9 km) W. Retrieved 2019/09/21 12:12 UTC (25 minutes ago):

TAF TAF NVVV 211000Z 2112/2212 VRB03KT 9999 SCT020